sensor_id;sensor_type;location;lat;lon;timestamp;pressure;altitude;pressure_sealevel;temperature;humidity
12799;BME280;19250;42.646;26.980;2022-08-04T00:00:24;98871.47;;;22.16;100.00
12799;BME280;19250;42.646;26.980;2022-08-04T00:03:10;98964.63;;;23.09;100.00
12799;BME280;19250;42.646;26.980;2022-08-04T00:05:57;98971.81;;;23.27;100.00
12799;BME280;19250;42.646;26.980;2022-08-04T00:08:33;98970.16;;;23.26;100.00
12799;BME280;19250;42.646;26.980;2022-08-04T00:11:01;98964.09;;;23.36;99.31
12799;BME280;19250;42.646;26.980;2022-08-04T00:13:33;98962.22;;;23.36;99.26
12799;BME280;19250;42.646;26.980;2022-08-04T00:16:06;98965.56;;;23.26;99.67
12799;BME280;19250;42.646;26.980;2022-08-04T00:18:38;98893.41;;;22.84;99.63
12799;BME280;19250;42.646;26.980;2022-08-04T00:21:09;98960.72;;;23.17;100.00
12799;BME280;19250;42.646;26.980;2022-08-04T00:23:38;98964.28;;;23.17;100.00
12799;BME280;19250;42.646;26.980;2022-08-04T00:26:06;98932.81;;;23.10;99.30
12799;BME280;19250;42.646;26.980;2022-08-04T00:28:37;98965.72;;;22.97;99.96
12799;BME280;19250;42.646;26.980;2022-08-04T00:31:07;98965.59;;;22.57;100.00
12799;BME280;19250;42.646;26.980;2022-08-04T00:33:36;98965.72;;;22.27;100.00
12799;BME280;19250;42.646;26.980;2022-08-04T00:36:04;98966.31;;;22.29;100.00
12799;BME280;19250;42.646;26.980;2022-08-04T00:38:33;98964.41;;;21.77;100.00
12799;BME280;19250;42.646;26.980;2022-08-04T00:41:09;98961.88;;;22.05;100.00
12799;BME280;19250;42.646;26.980;2022-08-04T00:43:50;98968.47;;;22.50;100.00
12799;BME280;19250;42.646;26.980;2022-08-04T00:46:30;98971.06;;;22.80;100.00
12799;BME280;19250;42.646;26.980;2022-08-04T00:52:13;98972.09;;;22.33;100.00
12799;BME280;19250;42.646;26.980;2022-08-04T00:54:58;98975.94;;;22.02;100.00
12799;BME280;19250;42.646;26.980;2022-08-04T00:57:39;98973.22;;;21.72;100.00
12799;BME280;19250;42.646;26.980;2022-08-04T01:00:11;98960.91;;;21.28;100.00
12799;BME280;19250;42.646;26.980;2022-08-04T01:02:51;98971.47;;;21.78;100.00
12799;BME280;19250;42.646;26.980;2022-08-04T01:05:26;98971.47;;;21.78;100.00
12799;BME280;19250;42.646;26.980;2022-08-04T01:10:57;98938.03;;;21.65;100.00
12799;BME280;19250;42.646;26.980;2022-08-04T01:13:48;98970.69;;;22.30;100.00
12799;BME280;19250;42.646;26.980;2022-08-04T01:16:24;98977.78;;;22.54;98.04
12799;BME280;19250;42.646;26.980;2022-08-04T01:18:58;98944.13;;;22.44;97.63
12799;BME280;19250;42.646;26.980;2022-08-04T01:21:54;98981.53;;;21.77;100.00
12799;BME280;19250;42.646;26.980;2022-08-04T01:24:44;98962.41;;;21.24;100.00
12799;BME280;19250;42.646;26.980;2022-08-04T01:27:26;98957.88;;;21.36;100.00
12799;BME280;19250;42.646;26.980;2022-08-04T01:29:58;98972.81;;;21.09;100.00
12799;BME280;19250;42.646;26.980;2022-08-04T01:32:31;98966.28;;;21.46;100.00
12799;BME280;19250;42.646;26.980;2022-08-04T01:35:02;98968.22;;;21.57;100.00
12799;BME280;19250;42.646;26.980;2022-08-04T01:37:44;98970.53;;;21.06;100.00
12799;BME280;19250;42.646;26.980;2022-08-04T01:40:15;98967.44;;;21.21;100.00
12799;BME280;19250;42.646;26.980;2022-08-04T01:42:43;98968.19;;;20.73;100.00
12799;BME280;19250;42.646;26.980;2022-08-04T01:45:13;98963.41;;;20.50;100.00
12799;BME280;19250;42.646;26.980;2022-08-04T01:47:51;98968.00;;;20.50;100.00
12799;BME280;19250;42.646;26.980;2022-08-04T01:50:19;98962.84;;;20.85;100.00
12799;BME280;19250;42.646;26.980;2022-08-04T01:52:49;98966.44;;;20.60;100.00
12799;BME280;19250;42.646;26.980;2022-08-04T01:55:18;98965.16;;;20.63;100.00
12799;BME280;19250;42.646;26.980;2022-08-04T01:57:48;98967.94;;;20.56;100.00
12799;BME280;19250;42.646;26.980;2022-08-04T02:00:19;98969.81;;;20.31;100.00
12799;BME280;19250;42.646;26.980;2022-08-04T02:02:46;98976.16;;;20.43;100.00
12799;BME280;19250;42.646;26.980;2022-08-04T02:05:17;98969.59;;;20.08;100.00
12799;BME280;19250;42.646;26.980;2022-08-04T02:07:52;98970.59;;;20.38;100.00
12799;BME280;19250;42.646;26.980;2022-08-04T02:10:28;98970.22;;;20.35;100.00
12799;BME280;19250;42.646;26.980;2022-08-04T02:13:06;98978.19;;;20.30;100.00
12799;BME280;19250;42.646;26.980;2022-08-04T02:15:43;98987.06;;;20.37;100.00
12799;BME280;19250;42.646;26.980;2022-08-04T02:18:18;98947.78;;;19.72;100.00
12799;BME280;19250;42.646;26.980;2022-08-04T02:20:53;98978.59;;;19.71;100.00
12799;BME280;19250;42.646;26.980;2022-08-04T02:23:28;98972.84;;;19.85;100.00
12799;BME280;19250;42.646;26.980;2022-08-04T02:25:59;98946.56;;;19.68;100.00
12799;BME280;19250;42.646;26.980;2022-08-04T02:28:32;98918.88;;;19.28;100.00
12799;BME280;19250;42.646;26.980;2022-08-04T02:31:21;98906.50;;;19.07;100.00
12799;BME280;19250;42.646;26.980;2022-08-04T02:33:57;98974.53;;;19.48;100.00
12799;BME280;19250;42.646;26.980;2022-08-04T02:36:30;98970.34;;;19.59;100.00
12799;BME280;19250;42.646;26.980;2022-08-04T02:39:00;98958.94;;;19.82;100.00
12799;BME280;19250;42.646;26.980;2022-08-04T02:41:30;98971.78;;;19.93;100.00
12799;BME280;19250;42.646;26.980;2022-08-04T02:43:59;98906.63;;;19.25;100.00
12799;BME280;19250;42.646;26.980;2022-08-04T02:46:30;98972.66;;;19.49;100.00
12799;BME280;19250;42.646;26.980;2022-08-04T02:49:01;98980.94;;;19.54;100.00
12799;BME280;19250;42.646;26.980;2022-08-04T02:51:32;98975.59;;;19.47;100.00
12799;BME280;19250;42.646;26.980;2022-08-04T02:54:02;98973.66;;;19.54;100.00
12799;BME280;19250;42.646;26.980;2022-08-04T02:56:31;98974.53;;;19.48;100.00
12799;BME280;19250;42.646;26.980;2022-08-04T02:59:01;98977.69;;;19.45;100.00
12799;BME280;19250;42.646;26.980;2022-08-04T03:01:30;98965.69;;;19.22;100.00
12799;BME280;19250;42.646;26.980;2022-08-04T03:04:13;98983.88;;;19.52;100.00
12799;BME280;19250;42.646;26.980;2022-08-04T03:07:14;98979.78;;;19.43;100.00
12799;BME280;19250;42.646;26.980;2022-08-04T03:16:00;98982.84;;;19.53;100.00
12799;BME280;19250;42.646;26.980;2022-08-04T03:19:00;98985.00;;;19.32;100.00
12799;BME280;19250;42.646;26.980;2022-08-04T03:25:13;98986.03;;;20.06;100.00
12799;BME280;19250;42.646;26.980;2022-08-04T03:28:25;98983.69;;;20.66;100.00
12799;BME280;19250;42.646;26.980;2022-08-04T03:31:34;98984.75;;;21.01;100.00
12799;BME280;19250;42.646;26.980;2022-08-04T03:34:24;98990.56;;;21.23;97.99
12799;BME280;19250;42.646;26.980;2022-08-04T03:37:21;98985.28;;;21.46;96.94
12799;BME280;19250;42.646;26.980;2022-08-04T03:40:20;98987.41;;;21.74;95.26
12799;BME280;19250;42.646;26.980;2022-08-04T03:49:15;98979.94;;;21.40;98.07
12799;BME280;19250;42.646;26.980;2022-08-04T03:52:00;98991.78;;;21.87;96.00
12799;BME280;19250;42.646;26.980;2022-08-04T03:55:15;98991.94;;;22.33;94.17
12799;BME280;19250;42.646;26.980;2022-08-04T03:58:31;98990.16;;;22.15;92.87
12799;BME280;19250;42.646;26.980;2022-08-04T04:01:13;99003.00;;;22.20;92.87
12799;BME280;19250;42.646;26.980;2022-08-04T04:04:25;99001.75;;;21.93;94.41
12799;BME280;19250;42.646;26.980;2022-08-04T04:10:19;99003.19;;;21.47;96.10
12799;BME280;19250;42.646;26.980;2022-08-04T04:16:24;98995.34;;;21.57;95.56
12799;BME280;19250;42.646;26.980;2022-08-04T04:19:13;98961.97;;;21.09;97.17
12799;BME280;19250;42.646;26.980;2022-08-04T04:22:12;98987.22;;;21.09;99.20
12799;BME280;19250;42.646;26.980;2022-08-04T04:25:03;98985.47;;;21.15;99.01
12799;BME280;19250;42.646;26.980;2022-08-04T04:27:46;98989.22;;;21.14;98.76
12799;BME280;19250;42.646;26.980;2022-08-04T04:30:18;98988.28;;;21.38;96.78
12799;BME280;19250;42.646;26.980;2022-08-04T04:33:04;98999.59;;;21.35;96.85
12799;BME280;19250;42.646;26.980;2022-08-04T04:35:40;98996.66;;;21.55;96.95
12799;BME280;19250;42.646;26.980;2022-08-04T04:38:43;98998.25;;;21.92;94.68
12799;BME280;19250;42.646;26.980;2022-08-04T04:41:24;98996.78;;;22.31;92.29
12799;BME280;19250;42.646;26.980;2022-08-04T04:44:19;99008.66;;;22.07;92.27
12799;BME280;19250;42.646;26.980;2022-08-04T04:46:59;98980.03;;;22.34;89.78
12799;BME280;19250;42.646;26.980;2022-08-04T04:49:34;99009.03;;;22.87;87.86
12799;BME280;19250;42.646;26.980;2022-08-04T04:52:08;98999.69;;;23.46;85.44
12799;BME280;19250;42.646;26.980;2022-08-04T04:54:50;99012.22;;;23.87;81.71
12799;BME280;19250;42.646;26.980;2022-08-04T04:57:20;99006.78;;;24.15;79.96
12799;BME280;19250;42.646;26.980;2022-08-04T04:59:53;98950.06;;;23.55;79.62
12799;BME280;19250;42.646;26.980;2022-08-04T05:02:41;98998.38;;;23.88;79.51
12799;BME280;19250;42.646;26.980;2022-08-04T05:05:22;99004.53;;;23.83;81.74
12799;BME280;19250;42.646;26.980;2022-08-04T05:08:26;99003.72;;;24.28;77.68
12799;BME280;19250;42.646;26.980;2022-08-04T05:11:09;99013.16;;;24.70;76.85
12799;BME280;19250;42.646;26.980;2022-08-04T05:13:43;99012.84;;;24.05;79.07
12799;BME280;19250;42.646;26.980;2022-08-04T05:16:16;99007.47;;;24.55;77.13
12799;BME280;19250;42.646;26.980;2022-08-04T05:18:48;99001.63;;;25.02;74.78
12799;BME280;19250;42.646;26.980;2022-08-04T05:21:40;99006.22;;;25.18;73.74
12799;BME280;19250;42.646;26.980;2022-08-04T05:24:11;98999.53;;;25.09;72.97
12799;BME280;19250;42.646;26.980;2022-08-04T05:26:44;99002.09;;;25.80;70.85
12799;BME280;19250;42.646;26.980;2022-08-04T05:29:17;98981.63;;;25.56;71.50
12799;BME280;19250;42.646;26.980;2022-08-04T05:31:51;98999.00;;;25.98;68.62
12799;BME280;19250;42.646;26.980;2022-08-04T05:34:22;99006.09;;;25.99;67.84
12799;BME280;19250;42.646;26.980;2022-08-04T05:36:53;99000.22;;;26.39;69.07
12799;BME280;19250;42.646;26.980;2022-08-04T05:39:23;98994.66;;;26.61;68.09
12799;BME280;19250;42.646;26.980;2022-08-04T05:41:52;99006.13;;;26.95;64.57
12799;BME280;19250;42.646;26.980;2022-08-04T05:44:22;99007.34;;;27.19;64.72
12799;BME280;19250;42.646;26.980;2022-08-04T05:46:53;99003.41;;;27.47;63.27
12799;BME280;19250;42.646;26.980;2022-08-04T05:49:22;98942.13;;;27.73;60.93
12799;BME280;19250;42.646;26.980;2022-08-04T05:51:51;99007.88;;;27.63;60.11
12799;BME280;19250;42.646;26.980;2022-08-04T05:54:19;99009.53;;;27.64;61.76
12799;BME280;19250;42.646;26.980;2022-08-04T05:56:47;99005.50;;;27.97;60.79
12799;BME280;19250;42.646;26.980;2022-08-04T05:59:17;99004.13;;;27.99;62.25
12799;BME280;19250;42.646;26.980;2022-08-04T06:01:46;99007.50;;;28.67;54.37
12799;BME280;19250;42.646;26.980;2022-08-04T06:04:15;99000.06;;;28.62;57.02
12799;BME280;19250;42.646;26.980;2022-08-04T06:06:44;99003.38;;;28.49;55.39
12799;BME280;19250;42.646;26.980;2022-08-04T06:09:12;98964.69;;;28.31;55.44
12799;BME280;19250;42.646;26.980;2022-08-04T06:11:40;99003.38;;;28.49;56.12
12799;BME280;19250;42.646;26.980;2022-08-04T06:14:12;98992.59;;;29.13;53.48
12799;BME280;19250;42.646;26.980;2022-08-04T06:16:43;98992.06;;;29.81;49.93
12799;BME280;19250;42.646;26.980;2022-08-04T06:19:12;98997.25;;;29.28;51.00
12799;BME280;19250;42.646;26.980;2022-08-04T06:21:46;98990.94;;;29.12;52.29
12799;BME280;19250;42.646;26.980;2022-08-04T06:24:17;98987.13;;;29.03;52.09
12799;BME280;19250;42.646;26.980;2022-08-04T06:26:47;98992.59;;;29.08;53.79
12799;BME280;19250;42.646;26.980;2022-08-04T06:29:17;98990.88;;;29.38;53.50
12799;BME280;19250;42.646;26.980;2022-08-04T06:31:52;98978.00;;;29.92;50.16
12799;BME280;19250;42.646;26.980;2022-08-04T06:34:28;98984.94;;;30.23;49.32
12799;BME280;19250;42.646;26.980;2022-08-04T06:36:56;98982.44;;;30.61;45.92
12799;BME280;19250;42.646;26.980;2022-08-04T06:39:25;98982.28;;;30.76;46.33
12799;BME280;19250;42.646;26.980;2022-08-04T06:41:54;98983.03;;;31.10;46.11
12799;BME280;19250;42.646;26.980;2022-08-04T06:44:22;98985.34;;;31.03;44.35
12799;BME280;19250;42.646;26.980;2022-08-04T06:46:52;98966.19;;;30.88;44.03
12799;BME280;19250;42.646;26.980;2022-08-04T06:49:21;98951.88;;;30.86;41.51
12799;BME280;19250;42.646;26.980;2022-08-04T06:51:49;98992.53;;;31.23;41.36
12799;BME280;19250;42.646;26.980;2022-08-04T06:54:17;98998.00;;;31.04;42.51
12799;BME280;19250;42.646;26.980;2022-08-04T06:56:45;98999.53;;;31.63;41.37
12799;BME280;19250;42.646;26.980;2022-08-04T06:59:15;99004.22;;;31.39;39.50
12799;BME280;19250;42.646;26.980;2022-08-04T07:01:45;98970.91;;;30.83;42.52
12799;BME280;19250;42.646;26.980;2022-08-04T07:04:15;99000.13;;;31.12;40.19
12799;BME280;19250;42.646;26.980;2022-08-04T07:06:42;98992.50;;;31.28;39.67
12799;BME280;19250;42.646;26.980;2022-08-04T07:09:09;98993.56;;;31.56;40.21
12799;BME280;19250;42.646;26.980;2022-08-04T07:11:37;98995.81;;;31.91;38.72
12799;BME280;19250;42.646;26.980;2022-08-04T07:14:05;99000.22;;;31.50;39.46
12799;BME280;19250;42.646;26.980;2022-08-04T07:16:33;98992.66;;;31.37;37.90
12799;BME280;19250;42.646;26.980;2022-08-04T07:19:01;98989.94;;;31.98;37.14
12799;BME280;19250;42.646;26.980;2022-08-04T07:21:30;99006.19;;;31.99;36.70
12799;BME280;19250;42.646;26.980;2022-08-04T07:23:57;98997.31;;;31.83;36.30
12799;BME280;19250;42.646;26.980;2022-08-04T07:26:28;98989.03;;;31.83;37.00
12799;BME280;19250;42.646;26.980;2022-08-04T07:28:55;98985.41;;;32.25;36.25
12799;BME280;19250;42.646;26.980;2022-08-04T07:31:24;98995.59;;;32.44;35.93
12799;BME280;19250;42.646;26.980;2022-08-04T07:33:52;98993.94;;;32.43;35.46
12799;BME280;19250;42.646;26.980;2022-08-04T07:36:21;98998.16;;;32.54;34.87
12799;BME280;19250;42.646;26.980;2022-08-04T07:38:50;98992.66;;;32.54;34.61
12799;BME280;19250;42.646;26.980;2022-08-04T07:41:20;98985.38;;;32.76;34.22
12799;BME280;19250;42.646;26.980;2022-08-04T07:43:48;98981.06;;;33.16;33.05
12799;BME280;19250;42.646;26.980;2022-08-04T07:46:16;98985.31;;;32.95;32.94
12799;BME280;19250;42.646;26.980;2022-08-04T07:48:43;98978.44;;;32.79;34.24
12799;BME280;19250;42.646;26.980;2022-08-04T07:51:11;98988.19;;;32.58;33.80
12799;BME280;19250;42.646;26.980;2022-08-04T07:53:39;98987.59;;;32.61;32.64
12799;BME280;19250;42.646;26.980;2022-08-04T07:56:10;98988.41;;;32.61;33.32
12799;BME280;19250;42.646;26.980;2022-08-04T07:58:37;98981.63;;;32.86;32.55
12799;BME280;19250;42.646;26.980;2022-08-04T08:01:05;98894.13;;;32.03;33.23
12799;BME280;19250;42.646;26.980;2022-08-04T08:03:33;98988.63;;;32.65;33.10
12799;BME280;19250;42.646;26.980;2022-08-04T08:06:00;98987.66;;;32.88;32.40
12799;BME280;19250;42.646;26.980;2022-08-04T08:08:28;98987.09;;;33.18;32.13
12799;BME280;19250;42.646;26.980;2022-08-04T08:10:56;98984.88;;;33.20;32.11
12799;BME280;19250;42.646;26.980;2022-08-04T08:13:25;98982.63;;;33.63;31.84
12799;BME280;19250;42.646;26.980;2022-08-04T08:15:52;98983.09;;;33.24;31.10
12799;BME280;19250;42.646;26.980;2022-08-04T08:18:20;98987.56;;;32.93;32.20
12799;BME280;19250;42.646;26.980;2022-08-04T08:20:47;98983.59;;;33.81;31.06
12799;BME280;19250;42.646;26.980;2022-08-04T08:23:17;98979.03;;;33.63;31.06
12799;BME280;19250;42.646;26.980;2022-08-04T08:25:44;98980.06;;;34.03;31.25
12799;BME280;19250;42.646;26.980;2022-08-04T08:28:12;98977.97;;;34.08;30.95
12799;BME280;19250;42.646;26.980;2022-08-04T08:30:46;98981.88;;;34.65;29.79
12799;BME280;19250;42.646;26.980;2022-08-04T08:33:31;98989.38;;;34.65;29.20
12799;BME280;19250;42.646;26.980;2022-08-04T08:36:28;98993.13;;;34.24;29.54
12799;BME280;19250;42.646;26.980;2022-08-04T08:43:04;98981.28;;;34.55;29.90
12799;BME280;19250;42.646;26.980;2022-08-04T08:46:13;98973.09;;;34.50;29.59
12799;BME280;19250;42.646;26.980;2022-08-04T08:49:04;98989.63;;;34.77;28.83
12799;BME280;19250;42.646;26.980;2022-08-04T08:51:54;98974.81;;;34.15;29.67
12799;BME280;19250;42.646;26.980;2022-08-04T08:54:55;98976.25;;;34.34;30.25
12799;BME280;19250;42.646;26.980;2022-08-04T08:57:41;98975.69;;;34.68;29.06
12799;BME280;19250;42.646;26.980;2022-08-04T09:00:18;98980.06;;;35.70;28.31
12799;BME280;19250;42.646;26.980;2022-08-04T09:03:25;98976.22;;;35.40;27.79
12799;BME280;19250;42.646;26.980;2022-08-04T09:06:06;98967.06;;;35.01;28.61
12799;BME280;19250;42.646;26.980;2022-08-04T09:08:59;98966.25;;;35.00;27.62
12799;BME280;19250;42.646;26.980;2022-08-04T09:11:38;98954.91;;;34.79;28.30
12799;BME280;19250;42.646;26.980;2022-08-04T09:14:14;98963.78;;;35.29;28.42
12799;BME280;19250;42.646;26.980;2022-08-04T09:16:47;98962.13;;;35.93;27.62
12799;BME280;19250;42.646;26.980;2022-08-04T09:19:23;98960.03;;;36.33;27.67
12799;BME280;19250;42.646;26.980;2022-08-04T09:22:00;98960.50;;;36.70;26.71
12799;BME280;19250;42.646;26.980;2022-08-04T09:24:37;98956.28;;;36.29;26.58
12799;BME280;19250;42.646;26.980;2022-08-04T09:27:14;98956.59;;;36.28;26.82
12799;BME280;19250;42.646;26.980;2022-08-04T09:29:47;98942.19;;;36.69;26.30
12799;BME280;19250;42.646;26.980;2022-08-04T09:32:28;98950.84;;;36.59;26.82
12799;BME280;19250;42.646;26.980;2022-08-04T09:35:09;98955.34;;;36.89;26.48
12799;BME280;19250;42.646;26.980;2022-08-04T09:37:43;98957.19;;;36.85;25.99
12799;BME280;19250;42.646;26.980;2022-08-04T09:40:19;98953.13;;;37.20;26.20
12799;BME280;19250;42.646;26.980;2022-08-04T09:42:54;98951.88;;;36.54;26.67
12799;BME280;19250;42.646;26.980;2022-08-04T09:45:34;98930.31;;;36.89;25.90
12799;BME280;19250;42.646;26.980;2022-08-04T09:48:07;98930.44;;;36.03;26.36
12799;BME280;19250;42.646;26.980;2022-08-04T09:50:39;98944.34;;;35.86;27.11
12799;BME280;19250;42.646;26.980;2022-08-04T09:53:29;98902.03;;;36.87;26.02
12799;BME280;19250;42.646;26.980;2022-08-04T09:56:08;98946.06;;;37.60;24.97
12799;BME280;19250;42.646;26.980;2022-08-04T09:58:49;98947.91;;;36.64;26.30
12799;BME280;19250;42.646;26.980;2022-08-04T10:01:22;98947.16;;;37.01;25.86
12799;BME280;19250;42.646;26.980;2022-08-04T10:03:52;98942.66;;;36.71;26.11
12799;BME280;19250;42.646;26.980;2022-08-04T10:06:55;98917.03;;;36.57;25.85
12799;BME280;19250;42.646;26.980;2022-08-04T10:09:46;98944.09;;;38.23;25.23
12799;BME280;19250;42.646;26.980;2022-08-04T10:12:28;98949.16;;;38.09;24.51
12799;BME280;19250;42.646;26.980;2022-08-04T10:15:03;98946.41;;;37.80;24.78
12799;BME280;19250;42.646;26.980;2022-08-04T10:17:38;98943.22;;;37.31;25.53
12799;BME280;19250;42.646;26.980;2022-08-04T10:20:15;98943.28;;;37.60;25.49
12799;BME280;19250;42.646;26.980;2022-08-04T10:22:57;98915.91;;;37.83;24.42
12799;BME280;19250;42.646;26.980;2022-08-04T10:25:37;98893.56;;;36.20;25.44
12799;BME280;19250;42.646;26.980;2022-08-04T10:28:13;98930.94;;;35.88;26.01
12799;BME280;19250;42.646;26.980;2022-08-04T10:30:46;98933.72;;;35.71;26.61
12799;BME280;19250;42.646;26.980;2022-08-04T10:33:22;98936.81;;;36.38;26.32
12799;BME280;19250;42.646;26.980;2022-08-04T10:35:54;98919.88;;;36.86;25.00
12799;BME280;19250;42.646;26.980;2022-08-04T10:38:30;98925.78;;;36.84;25.54
12799;BME280;19250;42.646;26.980;2022-08-04T10:41:01;98926.34;;;36.43;25.11
12799;BME280;19250;42.646;26.980;2022-08-04T10:43:41;98926.06;;;37.00;25.03
12799;BME280;19250;42.646;26.980;2022-08-04T10:46:13;98924.69;;;37.94;24.72
12799;BME280;19250;42.646;26.980;2022-08-04T10:48:46;98891.06;;;37.57;24.31
12799;BME280;19250;42.646;26.980;2022-08-04T10:51:22;98913.69;;;37.77;24.47
12799;BME280;19250;42.646;26.980;2022-08-04T10:53:56;98916.91;;;38.20;24.25
12799;BME280;19250;42.646;26.980;2022-08-04T10:56:31;98911.88;;;38.34;23.01
12799;BME280;19250;42.646;26.980;2022-08-04T10:59:02;98922.50;;;38.86;22.41
12799;BME280;19250;42.646;26.980;2022-08-04T11:01:34;98910.41;;;39.66;21.23
12799;BME280;19250;42.646;26.980;2022-08-04T11:04:07;98900.31;;;40.30;20.66
12799;BME280;19250;42.646;26.980;2022-08-04T11:06:36;98902.63;;;40.12;21.35
12799;BME280;19250;42.646;26.980;2022-08-04T11:09:06;98907.28;;;38.95;22.05
12799;BME280;19250;42.646;26.980;2022-08-04T11:11:38;98865.38;;;40.51;20.37
12799;BME280;19250;42.646;26.980;2022-08-04T11:14:11;98904.94;;;41.63;19.77
12799;BME280;19250;42.646;26.980;2022-08-04T11:16:43;98908.59;;;41.32;20.12
12799;BME280;19250;42.646;26.980;2022-08-04T11:19:22;98899.44;;;40.41;21.02
12799;BME280;19250;42.646;26.980;2022-08-04T11:21:55;98897.41;;;41.83;20.03
12799;BME280;19250;42.646;26.980;2022-08-04T11:24:34;98888.22;;;41.66;19.75
12799;BME280;19250;42.646;26.980;2022-08-04T11:27:12;98892.63;;;39.47;21.70
12799;BME280;19250;42.646;26.980;2022-08-04T11:29:48;98895.28;;;36.96;23.98
12799;BME280;19250;42.646;26.980;2022-08-04T11:32:19;98883.72;;;36.86;24.65
12799;BME280;19250;42.646;26.980;2022-08-04T11:34:50;98878.81;;;37.71;24.11
12799;BME280;19250;42.646;26.980;2022-08-04T11:37:22;98885.31;;;39.30;21.95
12799;BME280;19250;42.646;26.980;2022-08-04T11:40:01;98889.75;;;40.66;21.19
12799;BME280;19250;42.646;26.980;2022-08-04T11:42:32;98882.47;;;42.36;18.82
12799;BME280;19250;42.646;26.980;2022-08-04T11:45:03;98880.28;;;43.13;18.39
12799;BME280;19250;42.646;26.980;2022-08-04T11:47:39;98879.22;;;42.76;18.55
12799;BME280;19250;42.646;26.980;2022-08-04T11:50:11;98877.66;;;41.25;20.26
12799;BME280;19250;42.646;26.980;2022-08-04T11:52:41;98881.28;;;39.80;21.45
12799;BME280;19250;42.646;26.980;2022-08-04T11:55:15;98887.25;;;39.17;22.03
12799;BME280;19250;42.646;26.980;2022-08-04T11:57:44;98871.97;;;39.76;21.36
12799;BME280;19250;42.646;26.980;2022-08-04T12:00:14;98870.94;;;41.29;19.79
12799;BME280;19250;42.646;26.980;2022-08-04T12:03:05;98868.38;;;41.75;19.15
12799;BME280;19250;42.646;26.980;2022-08-04T12:05:51;98849.75;;;40.50;19.87
12799;BME280;19250;42.646;26.980;2022-08-04T12:08:42;98861.31;;;39.53;21.51
12799;BME280;19250;42.646;26.980;2022-08-04T12:11:27;98860.34;;;39.61;21.53
12799;BME280;19250;42.646;26.980;2022-08-04T12:14:08;98860.63;;;40.52;20.87
12799;BME280;19250;42.646;26.980;2022-08-04T12:16:44;98857.28;;;39.91;21.25
12799;BME280;19250;42.646;26.980;2022-08-04T12:19:18;98862.28;;;37.95;23.31
12799;BME280;19250;42.646;26.980;2022-08-04T12:21:51;98846.91;;;37.68;23.46
12799;BME280;19250;42.646;26.980;2022-08-04T12:24:22;98859.88;;;36.85;24.77
12799;BME280;19250;42.646;26.980;2022-08-04T12:26:58;98863.66;;;36.17;25.27
12799;BME280;19250;42.646;26.980;2022-08-04T12:29:32;98859.09;;;36.21;25.55
12799;BME280;19250;42.646;26.980;2022-08-04T12:32:10;98827.38;;;37.77;23.93
12799;BME280;19250;42.646;26.980;2022-08-04T12:34:40;98847.13;;;38.49;23.02
12799;BME280;19250;42.646;26.980;2022-08-04T12:40:00;98838.94;;;37.37;24.01
12799;BME280;19250;42.646;26.980;2022-08-04T12:42:35;98818.69;;;38.68;22.27
12799;BME280;19250;42.646;26.980;2022-08-04T12:45:09;98846.94;;;40.35;21.68
12799;BME280;19250;42.646;26.980;2022-08-04T12:47:37;98791.50;;;41.92;19.77
12799;BME280;19250;42.646;26.980;2022-08-04T12:50:07;98831.50;;;41.54;19.96
12799;BME280;19250;42.646;26.980;2022-08-04T12:52:42;98845.88;;;39.19;21.88
12799;BME280;19250;42.646;26.980;2022-08-04T12:55:10;98828.44;;;37.43;23.69
12799;BME280;19250;42.646;26.980;2022-08-04T12:57:40;98833.97;;;37.51;24.00
12799;BME280;19250;42.646;26.980;2022-08-04T13:00:09;98822.41;;;38.15;23.04
12799;BME280;19250;42.646;26.980;2022-08-04T13:02:40;98824.44;;;37.52;23.78
12799;BME280;19250;42.646;26.980;2022-08-04T13:05:10;98817.78;;;37.24;23.36
12799;BME280;19250;42.646;26.980;2022-08-04T13:07:42;98839.97;;;36.11;24.95
12799;BME280;19250;42.646;26.980;2022-08-04T13:10:13;98841.72;;;35.12;26.09
12799;BME280;19250;42.646;26.980;2022-08-04T13:12:50;98831.03;;;34.88;26.07
12799;BME280;19250;42.646;26.980;2022-08-04T13:15:21;98827.84;;;36.79;24.26
12799;BME280;19250;42.646;26.980;2022-08-04T13:17:54;98829.25;;;39.35;22.05
12799;BME280;19250;42.646;26.980;2022-08-04T13:20:27;98827.03;;;40.83;20.54
12799;BME280;19250;42.646;26.980;2022-08-04T13:23:03;98830.41;;;41.23;20.15
12799;BME280;19250;42.646;26.980;2022-08-04T13:25:31;98832.91;;;39.51;21.68
12799;BME280;19250;42.646;26.980;2022-08-04T13:28:01;98824.94;;;38.08;22.60
12799;BME280;19250;42.646;26.980;2022-08-04T13:30:30;98817.63;;;38.48;22.38
12799;BME280;19250;42.646;26.980;2022-08-04T13:33:00;98828.44;;;38.50;22.61
12799;BME280;19250;42.646;26.980;2022-08-04T13:35:28;98821.13;;;37.80;23.48
12799;BME280;19250;42.646;26.980;2022-08-04T13:37:57;98816.22;;;38.66;22.76
12799;BME280;19250;42.646;26.980;2022-08-04T13:40:26;98828.00;;;39.72;21.84
12799;BME280;19250;42.646;26.980;2022-08-04T13:42:55;98826.47;;;40.46;20.40
12799;BME280;19250;42.646;26.980;2022-08-04T13:45:24;98824.31;;;40.55;20.58
12799;BME280;19250;42.646;26.980;2022-08-04T13:47:58;98824.41;;;40.74;20.34
12799;BME280;19250;42.646;26.980;2022-08-04T13:50:27;98837.91;;;40.41;20.39
12799;BME280;19250;42.646;26.980;2022-08-04T13:52:57;98826.00;;;39.33;21.44
12799;BME280;19250;42.646;26.980;2022-08-04T13:55:28;98822.53;;;37.86;22.99
12799;BME280;19250;42.646;26.980;2022-08-04T13:58:00;98820.91;;;38.18;23.13
12799;BME280;19250;42.646;26.980;2022-08-04T14:00:41;98829.28;;;40.03;21.25
12799;BME280;19250;42.646;26.980;2022-08-04T14:03:09;98812.13;;;41.84;19.47
12799;BME280;19250;42.646;26.980;2022-08-04T14:05:39;98826.63;;;41.86;18.74